« Back
NWS Peachtree City, Ga » Text Product » MCN Terminal Aerodrome Forecast


Printer-friendly Version
Current Version              Previous Versions:   1  2  3  4  5  6  7  8  9  

Terminal Aerodrome Forecast

521
FTUS42 KFFC 250525
TAFMCN
TAF
KMCN 250525Z 2506/2606 VRB03KT P6SM SKC
     FM250800 16005KT P6SM FEW250
     FM251500 20005KT P6SM SCT060 BKN250
     FM260100 16005KT P6SM BKN250=

USA.gov is the U.S. government's official web portal to all federal, state and local government web resources and services.